sensor_id;sensor_type;location;lat;lon;timestamp;P1;durP1;ratioP1;P2;durP2;ratioP2
17528;SDS011;8882;53.192;8.184;2023-09-18T00:02:25;6.20;;;5.60;;
17528;SDS011;8882;53.192;8.184;2023-09-18T00:04:54;6.00;;;5.40;;
17528;SDS011;8882;53.192;8.184;2023-09-18T00:07:19;7.40;;;5.70;;
17528;SDS011;8882;53.192;8.184;2023-09-18T00:09:45;7.43;;;5.57;;
17528;SDS011;8882;53.192;8.184;2023-09-18T00:12:11;5.87;;;5.27;;
17528;SDS011;8882;53.192;8.184;2023-09-18T00:14:37;6.30;;;5.37;;
17528;SDS011;8882;53.192;8.184;2023-09-18T00:17:03;7.13;;;6.43;;
17528;SDS011;8882;53.192;8.184;2023-09-18T00:19:28;8.77;;;5.93;;
17528;SDS011;8882;53.192;8.184;2023-09-18T00:21:54;6.47;;;5.10;;
17528;SDS011;8882;53.192;8.184;2023-09-18T00:24:21;7.43;;;6.67;;
17528;SDS011;8882;53.192;8.184;2023-09-18T00:26:48;9.10;;;8.20;;
17528;SDS011;8882;53.192;8.184;2023-09-18T00:29:13;9.53;;;8.17;;
17528;SDS011;8882;53.192;8.184;2023-09-18T00:31:39;7.87;;;7.07;;
17528;SDS011;8882;53.192;8.184;2023-09-18T00:34:05;8.80;;;7.93;;
17528;SDS011;8882;53.192;8.184;2023-09-18T00:36:31;9.97;;;8.93;;
17528;SDS011;8882;53.192;8.184;2023-09-18T00:38:57;11.73;;;9.13;;
17528;SDS011;8882;53.192;8.184;2023-09-18T00:41:23;11.47;;;9.53;;
17528;SDS011;8882;53.192;8.184;2023-09-18T00:43:49;12.67;;;10.83;;
17528;SDS011;8882;53.192;8.184;2023-09-18T00:46:14;12.17;;;10.93;;
17528;SDS011;8882;53.192;8.184;2023-09-18T00:48:40;13.43;;;12.03;;
17528;SDS011;8882;53.192;8.184;2023-09-18T00:51:08;13.47;;;12.07;;
17528;SDS011;8882;53.192;8.184;2023-09-18T00:53:33;13.87;;;11.10;;
17528;SDS011;8882;53.192;8.184;2023-09-18T00:56:00;14.03;;;11.13;;
17528;SDS011;8882;53.192;8.184;2023-09-18T00:58:28;15.80;;;12.27;;
17528;SDS011;8882;53.192;8.184;2023-09-18T01:00:54;15.67;;;13.07;;
17528;SDS011;8882;53.192;8.184;2023-09-18T01:03:20;17.00;;;13.03;;
17528;SDS011;8882;53.192;8.184;2023-09-18T01:05:47;16.63;;;12.97;;
17528;SDS011;8882;53.192;8.184;2023-09-18T01:08:14;15.83;;;13.67;;
17528;SDS011;8882;53.192;8.184;2023-09-18T01:10:44;16.17;;;13.23;;
17528;SDS011;8882;53.192;8.184;2023-09-18T01:13:35;14.90;;;13.30;;
17528;SDS011;8882;53.192;8.184;2023-09-18T01:16:10;16.07;;;13.43;;
17528;SDS011;8882;53.192;8.184;2023-09-18T01:18:49;15.13;;;13.50;;
17528;SDS011;8882;53.192;8.184;2023-09-18T01:21:15;15.73;;;13.50;;
17528;SDS011;8882;53.192;8.184;2023-09-18T01:23:42;17.40;;;13.23;;
17528;SDS011;8882;53.192;8.184;2023-09-18T01:26:08;15.87;;;13.20;;
17528;SDS011;8882;53.192;8.184;2023-09-18T01:28:35;14.73;;;13.00;;
17528;SDS011;8882;53.192;8.184;2023-09-18T01:31:00;14.23;;;11.53;;
17528;SDS011;8882;53.192;8.184;2023-09-18T01:33:26;15.07;;;12.10;;
17528;SDS011;8882;53.192;8.184;2023-09-18T01:35:53;14.50;;;12.43;;
17528;SDS011;8882;53.192;8.184;2023-09-18T01:38:20;16.30;;;11.53;;
17528;SDS011;8882;53.192;8.184;2023-09-18T01:40:47;13.50;;;12.10;;
17528;SDS011;8882;53.192;8.184;2023-09-18T01:43:13;13.70;;;11.83;;
17528;SDS011;8882;53.192;8.184;2023-09-18T01:45:39;14.50;;;11.87;;
17528;SDS011;8882;53.192;8.184;2023-09-18T01:48:07;13.37;;;11.27;;
17528;SDS011;8882;53.192;8.184;2023-09-18T01:50:32;13.80;;;10.80;;
17528;SDS011;8882;53.192;8.184;2023-09-18T01:52:58;12.23;;;10.93;;
17528;SDS011;8882;53.192;8.184;2023-09-18T01:55:25;12.90;;;11.40;;
17528;SDS011;8882;53.192;8.184;2023-09-18T01:57:51;13.57;;;11.60;;
17528;SDS011;8882;53.192;8.184;2023-09-18T02:00:17;15.97;;;11.20;;
17528;SDS011;8882;53.192;8.184;2023-09-18T02:02:43;13.00;;;11.60;;
17528;SDS011;8882;53.192;8.184;2023-09-18T02:05:08;13.33;;;11.00;;
17528;SDS011;8882;53.192;8.184;2023-09-18T02:07:34;12.60;;;11.30;;
17528;SDS011;8882;53.192;8.184;2023-09-18T02:10:00;13.73;;;11.60;;
17528;SDS011;8882;53.192;8.184;2023-09-18T02:12:26;12.60;;;11.30;;
17528;SDS011;8882;53.192;8.184;2023-09-18T02:14:51;12.67;;;10.33;;
17528;SDS011;8882;53.192;8.184;2023-09-18T02:17:17;12.27;;;10.00;;
17528;SDS011;8882;53.192;8.184;2023-09-18T02:19:42;11.27;;;9.90;;
17528;SDS011;8882;53.192;8.184;2023-09-18T02:22:09;12.57;;;10.03;;
17528;SDS011;8882;53.192;8.184;2023-09-18T02:24:35;14.10;;;10.27;;
17528;SDS011;8882;53.192;8.184;2023-09-18T02:27:03;12.13;;;10.03;;
17528;SDS011;8882;53.192;8.184;2023-09-18T02:29:31;10.97;;;9.67;;
17528;SDS011;8882;53.192;8.184;2023-09-18T02:31:56;11.20;;;9.80;;
17528;SDS011;8882;53.192;8.184;2023-09-18T02:34:23;11.57;;;9.73;;
17528;SDS011;8882;53.192;8.184;2023-09-18T02:36:49;10.27;;;9.13;;
17528;SDS011;8882;53.192;8.184;2023-09-18T02:39:15;12.40;;;9.90;;
17528;SDS011;8882;53.192;8.184;2023-09-18T02:41:41;11.23;;;10.07;;
17528;SDS011;8882;53.192;8.184;2023-09-18T02:44:06;13.47;;;9.40;;
17528;SDS011;8882;53.192;8.184;2023-09-18T02:46:32;11.23;;;9.70;;
17528;SDS011;8882;53.192;8.184;2023-09-18T02:48:58;10.10;;;9.00;;
17528;SDS011;8882;53.192;8.184;2023-09-18T02:51:23;12.73;;;9.70;;
17528;SDS011;8882;53.192;8.184;2023-09-18T02:53:49;10.80;;;9.53;;
17528;SDS011;8882;53.192;8.184;2023-09-18T02:56:14;10.40;;;9.30;;
17528;SDS011;8882;53.192;8.184;2023-09-18T02:58:40;11.77;;;9.43;;
17528;SDS011;8882;53.192;8.184;2023-09-18T03:01:07;10.20;;;9.00;;
17528;SDS011;8882;53.192;8.184;2023-09-18T03:03:33;11.50;;;9.00;;
17528;SDS011;8882;53.192;8.184;2023-09-18T03:06:02;9.87;;;8.60;;
17528;SDS011;8882;53.192;8.184;2023-09-18T03:08:29;12.20;;;9.03;;
17528;SDS011;8882;53.192;8.184;2023-09-18T03:10:54;9.93;;;8.93;;
17528;SDS011;8882;53.192;8.184;2023-09-18T03:13:21;10.43;;;9.10;;
17528;SDS011;8882;53.192;8.184;2023-09-18T03:15:47;12.73;;;9.30;;
17528;SDS011;8882;53.192;8.184;2023-09-18T03:18:12;9.33;;;8.33;;
17528;SDS011;8882;53.192;8.184;2023-09-18T03:20:38;14.67;;;8.63;;
17528;SDS011;8882;53.192;8.184;2023-09-18T03:23:04;11.30;;;9.20;;
17528;SDS011;8882;53.192;8.184;2023-09-18T03:25:29;9.67;;;8.67;;
17528;SDS011;8882;53.192;8.184;2023-09-18T03:27:55;11.03;;;8.40;;
17528;SDS011;8882;53.192;8.184;2023-09-18T03:30:23;11.47;;;8.80;;
17528;SDS011;8882;53.192;8.184;2023-09-18T03:32:50;9.63;;;8.03;;
17528;SDS011;8882;53.192;8.184;2023-09-18T03:35:16;9.93;;;8.17;;
17528;SDS011;8882;53.192;8.184;2023-09-18T03:37:52;10.30;;;7.60;;
17528;SDS011;8882;53.192;8.184;2023-09-18T03:40:19;8.67;;;7.73;;
17528;SDS011;8882;53.192;8.184;2023-09-18T03:42:45;10.07;;;8.13;;
17528;SDS011;8882;53.192;8.184;2023-09-18T03:45:11;10.50;;;7.93;;
17528;SDS011;8882;53.192;8.184;2023-09-18T03:47:38;9.90;;;8.30;;
17528;SDS011;8882;53.192;8.184;2023-09-18T03:50:11;9.63;;;7.20;;
17528;SDS011;8882;53.192;8.184;2023-09-18T03:52:37;10.43;;;7.23;;
17528;SDS011;8882;53.192;8.184;2023-09-18T03:55:07;11.37;;;7.70;;
17528;SDS011;8882;53.192;8.184;2023-09-18T03:57:33;9.03;;;7.20;;
17528;SDS011;8882;53.192;8.184;2023-09-18T03:59:59;8.63;;;7.73;;
17528;SDS011;8882;53.192;8.184;2023-09-18T04:02:25;11.20;;;8.10;;
17528;SDS011;8882;53.192;8.184;2023-09-18T04:04:51;9.83;;;7.20;;
17528;SDS011;8882;53.192;8.184;2023-09-18T04:07:18;9.43;;;7.70;;
17528;SDS011;8882;53.192;8.184;2023-09-18T04:09:44;9.83;;;7.43;;
17528;SDS011;8882;53.192;8.184;2023-09-18T04:12:10;8.33;;;7.13;;
17528;SDS011;8882;53.192;8.184;2023-09-18T04:14:35;10.57;;;7.27;;
17528;SDS011;8882;53.192;8.184;2023-09-18T04:17:01;8.13;;;7.30;;
17528;SDS011;8882;53.192;8.184;2023-09-18T04:19:27;8.93;;;7.27;;
17528;SDS011;8882;53.192;8.184;2023-09-18T04:21:54;8.13;;;7.17;;
17528;SDS011;8882;53.192;8.184;2023-09-18T04:24:20;7.40;;;6.70;;
17528;SDS011;8882;53.192;8.184;2023-09-18T04:26:45;11.10;;;7.63;;
17528;SDS011;8882;53.192;8.184;2023-09-18T04:29:11;9.23;;;7.77;;
17528;SDS011;8882;53.192;8.184;2023-09-18T04:31:37;10.37;;;8.07;;
17528;SDS011;8882;53.192;8.184;2023-09-18T04:34:05;11.87;;;8.50;;
17528;SDS011;8882;53.192;8.184;2023-09-18T04:36:32;12.20;;;8.33;;
17528;SDS011;8882;53.192;8.184;2023-09-18T04:38:57;10.17;;;8.43;;
17528;SDS011;8882;53.192;8.184;2023-09-18T04:41:23;9.23;;;7.83;;
17528;SDS011;8882;53.192;8.184;2023-09-18T04:43:48;10.23;;;8.60;;
17528;SDS011;8882;53.192;8.184;2023-09-18T04:46:15;11.90;;;8.20;;
17528;SDS011;8882;53.192;8.184;2023-09-18T04:48:41;9.30;;;8.00;;
17528;SDS011;8882;53.192;8.184;2023-09-18T04:51:07;12.33;;;8.23;;
17528;SDS011;8882;53.192;8.184;2023-09-18T04:53:34;11.00;;;8.80;;
17528;SDS011;8882;53.192;8.184;2023-09-18T04:56:00;10.40;;;7.50;;
17528;SDS011;8882;53.192;8.184;2023-09-18T04:58:25;13.00;;;8.97;;
17528;SDS011;8882;53.192;8.184;2023-09-18T05:00:54;8.93;;;8.03;;
17528;SDS011;8882;53.192;8.184;2023-09-18T05:03:21;13.27;;;8.37;;
17528;SDS011;8882;53.192;8.184;2023-09-18T05:05:46;11.47;;;8.57;;
17528;SDS011;8882;53.192;8.184;2023-09-18T05:08:12;10.77;;;8.07;;
17528;SDS011;8882;53.192;8.184;2023-09-18T05:10:37;10.57;;;8.40;;
17528;SDS011;8882;53.192;8.184;2023-09-18T05:13:04;9.77;;;7.20;;
17528;SDS011;8882;53.192;8.184;2023-09-18T05:15:30;9.90;;;8.30;;
17528;SDS011;8882;53.192;8.184;2023-09-18T05:17:56;9.87;;;8.10;;
17528;SDS011;8882;53.192;8.184;2023-09-18T05:20:27;14.17;;;7.93;;
17528;SDS011;8882;53.192;8.184;2023-09-18T05:22:54;10.33;;;7.37;;
17528;SDS011;8882;53.192;8.184;2023-09-18T05:25:21;9.27;;;7.50;;
17528;SDS011;8882;53.192;8.184;2023-09-18T05:27:51;8.87;;;7.50;;
17528;SDS011;8882;53.192;8.184;2023-09-18T05:30:30;11.70;;;7.80;;
17528;SDS011;8882;53.192;8.184;2023-09-18T05:32:59;9.40;;;7.17;;
17528;SDS011;8882;53.192;8.184;2023-09-18T05:35:30;9.83;;;7.43;;
17528;SDS011;8882;53.192;8.184;2023-09-18T05:37:58;9.23;;;8.23;;
17528;SDS011;8882;53.192;8.184;2023-09-18T05:40:25;11.57;;;7.20;;
17528;SDS011;8882;53.192;8.184;2023-09-18T05:42:53;10.27;;;7.10;;
17528;SDS011;8882;53.192;8.184;2023-09-18T05:45:19;13.03;;;7.10;;
17528;SDS011;8882;53.192;8.184;2023-09-18T05:47:45;9.47;;;7.27;;
17528;SDS011;8882;53.192;8.184;2023-09-18T05:50:11;9.47;;;6.67;;
17528;SDS011;8882;53.192;8.184;2023-09-18T05:52:41;9.33;;;6.70;;
17528;SDS011;8882;53.192;8.184;2023-09-18T05:55:08;9.57;;;6.70;;
17528;SDS011;8882;53.192;8.184;2023-09-18T05:57:34;7.73;;;6.83;;
17528;SDS011;8882;53.192;8.184;2023-09-18T05:59:59;8.67;;;6.80;;
17528;SDS011;8882;53.192;8.184;2023-09-18T06:02:25;10.87;;;6.23;;
17528;SDS011;8882;53.192;8.184;2023-09-18T06:04:56;8.07;;;6.37;;
17528;SDS011;8882;53.192;8.184;2023-09-18T06:07:26;9.73;;;6.70;;
17528;SDS011;8882;53.192;8.184;2023-09-18T06:09:52;10.77;;;6.97;;
17528;SDS011;8882;53.192;8.184;2023-09-18T06:12:18;8.00;;;6.60;;
17528;SDS011;8882;53.192;8.184;2023-09-18T06:14:44;8.10;;;6.20;;
17528;SDS011;8882;53.192;8.184;2023-09-18T06:17:11;8.60;;;6.47;;
17528;SDS011;8882;53.192;8.184;2023-09-18T06:19:37;7.47;;;6.63;;
17528;SDS011;8882;53.192;8.184;2023-09-18T06:22:02;10.20;;;6.20;;
17528;SDS011;8882;53.192;8.184;2023-09-18T06:24:29;8.30;;;6.63;;
17528;SDS011;8882;53.192;8.184;2023-09-18T06:26:55;9.00;;;6.50;;
17528;SDS011;8882;53.192;8.184;2023-09-18T06:29:20;7.50;;;6.17;;
17528;SDS011;8882;53.192;8.184;2023-09-18T06:31:46;9.97;;;6.40;;
17528;SDS011;8882;53.192;8.184;2023-09-18T06:34:12;9.47;;;6.53;;
17528;SDS011;8882;53.192;8.184;2023-09-18T06:36:37;8.03;;;6.40;;
17528;SDS011;8882;53.192;8.184;2023-09-18T06:39:04;9.83;;;6.43;;
17528;SDS011;8882;53.192;8.184;2023-09-18T06:41:29;7.10;;;6.27;;
17528;SDS011;8882;53.192;8.184;2023-09-18T06:43:55;8.20;;;6.50;;
17528;SDS011;8882;53.192;8.184;2023-09-18T06:46:21;12.40;;;6.60;;
17528;SDS011;8882;53.192;8.184;2023-09-18T06:48:47;8.77;;;6.30;;
17528;SDS011;8882;53.192;8.184;2023-09-18T06:51:16;19.63;;;6.70;;
17528;SDS011;8882;53.192;8.184;2023-09-18T06:53:43;10.83;;;6.40;;
17528;SDS011;8882;53.192;8.184;2023-09-18T06:56:09;9.00;;;6.23;;
17528;SDS011;8882;53.192;8.184;2023-09-18T06:58:34;9.70;;;6.10;;
17528;SDS011;8882;53.192;8.184;2023-09-18T07:01:02;9.00;;;5.73;;
17528;SDS011;8882;53.192;8.184;2023-09-18T07:03:28;8.60;;;5.50;;
17528;SDS011;8882;53.192;8.184;2023-09-18T07:05:53;8.97;;;5.47;;
17528;SDS011;8882;53.192;8.184;2023-09-18T07:08:19;7.13;;;5.10;;
17528;SDS011;8882;53.192;8.184;2023-09-18T07:10:49;6.97;;;5.27;;
17528;SDS011;8882;53.192;8.184;2023-09-18T07:13:15;9.37;;;6.03;;
17528;SDS011;8882;53.192;8.184;2023-09-18T07:15:41;6.57;;;5.77;;
17528;SDS011;8882;53.192;8.184;2023-09-18T07:18:06;9.67;;;5.43;;
17528;SDS011;8882;53.192;8.184;2023-09-18T07:20:32;8.83;;;5.27;;
17528;SDS011;8882;53.192;8.184;2023-09-18T07:22:58;8.10;;;5.27;;
17528;SDS011;8882;53.192;8.184;2023-09-18T07:25:24;5.70;;;4.60;;
17528;SDS011;8882;53.192;8.184;2023-09-18T07:27:50;6.83;;;5.07;;
17528;SDS011;8882;53.192;8.184;2023-09-18T07:30:16;8.17;;;4.53;;
17528;SDS011;8882;53.192;8.184;2023-09-18T07:32:42;6.43;;;4.50;;
17528;SDS011;8882;53.192;8.184;2023-09-18T07:35:09;6.77;;;4.90;;
17528;SDS011;8882;53.192;8.184;2023-09-18T07:37:35;11.83;;;5.10;;
17528;SDS011;8882;53.192;8.184;2023-09-18T07:40:02;7.40;;;5.20;;
17528;SDS011;8882;53.192;8.184;2023-09-18T07:42:28;7.13;;;6.37;;
17528;SDS011;8882;53.192;8.184;2023-09-18T07:44:54;4.97;;;4.43;;
17528;SDS011;8882;53.192;8.184;2023-09-18T07:47:20;6.27;;;4.77;;
17528;SDS011;8882;53.192;8.184;2023-09-18T07:49:45;5.47;;;4.83;;
17528;SDS011;8882;53.192;8.184;2023-09-18T07:52:11;5.93;;;5.17;;
17528;SDS011;8882;53.192;8.184;2023-09-18T07:54:37;6.23;;;5.30;;
17528;SDS011;8882;53.192;8.184;2023-09-18T07:57:04;10.17;;;5.20;;
17528;SDS011;8882;53.192;8.184;2023-09-18T07:59:32;6.60;;;5.13;;
17528;SDS011;8882;53.192;8.184;2023-09-18T08:01:58;10.10;;;5.50;;
17528;SDS011;8882;53.192;8.184;2023-09-18T08:04:24;11.80;;;5.23;;
17528;SDS011;8882;53.192;8.184;2023-09-18T08:06:50;7.10;;;5.30;;
17528;SDS011;8882;53.192;8.184;2023-09-18T08:09:15;5.90;;;4.90;;
17528;SDS011;8882;53.192;8.184;2023-09-18T08:11:42;7.83;;;5.30;;
17528;SDS011;8882;53.192;8.184;2023-09-18T08:14:10;8.07;;;4.80;;
17528;SDS011;8882;53.192;8.184;2023-09-18T08:16:38;6.97;;;4.60;;
17528;SDS011;8882;53.192;8.184;2023-09-18T08:19:03;5.60;;;5.00;;
17528;SDS011;8882;53.192;8.184;2023-09-18T08:21:29;8.40;;;5.37;;
17528;SDS011;8882;53.192;8.184;2023-09-18T08:23:55;6.93;;;5.30;;
17528;SDS011;8882;53.192;8.184;2023-09-18T08:26:22;8.30;;;5.13;;
17528;SDS011;8882;53.192;8.184;2023-09-18T08:28:48;6.53;;;4.90;;
17528;SDS011;8882;53.192;8.184;2023-09-18T08:31:13;9.10;;;5.17;;
17528;SDS011;8882;53.192;8.184;2023-09-18T08:33:41;5.93;;;5.23;;
17528;SDS011;8882;53.192;8.184;2023-09-18T08:36:07;8.33;;;5.47;;
17528;SDS011;8882;53.192;8.184;2023-09-18T08:38:33;7.47;;;5.10;;
17528;SDS011;8882;53.192;8.184;2023-09-18T08:40:59;7.80;;;5.13;;
17528;SDS011;8882;53.192;8.184;2023-09-18T08:43:25;9.27;;;5.70;;
17528;SDS011;8882;53.192;8.184;2023-09-18T08:45:52;8.83;;;5.93;;
17528;SDS011;8882;53.192;8.184;2023-09-18T08:48:19;8.87;;;5.27;;
17528;SDS011;8882;53.192;8.184;2023-09-18T08:50:45;6.30;;;5.30;;
17528;SDS011;8882;53.192;8.184;2023-09-18T08:53:12;7.10;;;5.37;;
17528;SDS011;8882;53.192;8.184;2023-09-18T08:55:39;9.27;;;5.60;;
17528;SDS011;8882;53.192;8.184;2023-09-18T08:58:06;9.30;;;5.20;;
17528;SDS011;8882;53.192;8.184;2023-09-18T09:00:38;7.03;;;5.20;;
17528;SDS011;8882;53.192;8.184;2023-09-18T09:03:04;8.17;;;5.40;;
17528;SDS011;8882;53.192;8.184;2023-09-18T09:05:30;7.57;;;5.60;;
17528;SDS011;8882;53.192;8.184;2023-09-18T09:07:56;8.97;;;5.63;;
17528;SDS011;8882;53.192;8.184;2023-09-18T09:10:22;8.00;;;5.10;;
17528;SDS011;8882;53.192;8.184;2023-09-18T09:12:55;8.73;;;5.40;;
17528;SDS011;8882;53.192;8.184;2023-09-18T09:15:23;14.70;;;5.63;;
17528;SDS011;8882;53.192;8.184;2023-09-18T09:17:51;11.33;;;5.37;;
17528;SDS011;8882;53.192;8.184;2023-09-18T09:20:26;9.70;;;5.23;;
17528;SDS011;8882;53.192;8.184;2023-09-18T09:22:51;8.27;;;5.43;;
17528;SDS011;8882;53.192;8.184;2023-09-18T09:25:23;8.73;;;5.00;;
17528;SDS011;8882;53.192;8.184;2023-09-18T09:27:51;9.17;;;5.10;;
17528;SDS011;8882;53.192;8.184;2023-09-18T09:30:24;7.37;;;4.80;;
17528;SDS011;8882;53.192;8.184;2023-09-18T09:32:51;9.40;;;5.43;;
17528;SDS011;8882;53.192;8.184;2023-09-18T09:35:18;10.10;;;5.77;;
17528;SDS011;8882;53.192;8.184;2023-09-18T09:37:45;7.73;;;5.13;;
17528;SDS011;8882;53.192;8.184;2023-09-18T09:40:11;7.63;;;5.20;;
17528;SDS011;8882;53.192;8.184;2023-09-18T09:42:40;8.13;;;5.10;;
17528;SDS011;8882;53.192;8.184;2023-09-18T09:45:13;7.57;;;4.93;;
17528;SDS011;8882;53.192;8.184;2023-09-18T09:47:44;7.60;;;4.97;;
17528;SDS011;8882;53.192;8.184;2023-09-18T09:50:13;10.90;;;4.80;;
17528;SDS011;8882;53.192;8.184;2023-09-18T09:52:44;9.27;;;5.50;;
17528;SDS011;8882;53.192;8.184;2023-09-18T09:55:32;8.33;;;5.50;;
17528;SDS011;8882;53.192;8.184;2023-09-18T09:58:04;6.83;;;5.20;;
17528;SDS011;8882;53.192;8.184;2023-09-18T10:03:02;8.47;;;5.80;;
17528;SDS011;8882;53.192;8.184;2023-09-18T10:05:31;9.97;;;5.17;;
17528;SDS011;8882;53.192;8.184;2023-09-18T10:08:02;9.50;;;5.13;;
17528;SDS011;8882;53.192;8.184;2023-09-18T10:10:36;10.37;;;5.90;;
17528;SDS011;8882;53.192;8.184;2023-09-18T10:13:07;8.07;;;4.77;;
17528;SDS011;8882;53.192;8.184;2023-09-18T10:15:42;8.27;;;4.90;;
17528;SDS011;8882;53.192;8.184;2023-09-18T10:21:01;7.07;;;5.33;;
17528;SDS011;8882;53.192;8.184;2023-09-18T10:23:38;8.87;;;5.13;;
17528;SDS011;8882;53.192;8.184;2023-09-18T10:26:09;13.97;;;5.70;;
17528;SDS011;8882;53.192;8.184;2023-09-18T10:28:41;8.97;;;4.90;;
17528;SDS011;8882;53.192;8.184;2023-09-18T10:31:08;7.90;;;5.40;;
17528;SDS011;8882;53.192;8.184;2023-09-18T10:33:36;8.73;;;4.93;;
17528;SDS011;8882;53.192;8.184;2023-09-18T10:36:03;5.67;;;4.53;;
17528;SDS011;8882;53.192;8.184;2023-09-18T10:38:31;5.00;;;4.40;;
17528;SDS011;8882;53.192;8.184;2023-09-18T10:40:57;7.03;;;4.40;;
17528;SDS011;8882;53.192;8.184;2023-09-18T10:43:24;7.10;;;5.00;;
17528;SDS011;8882;53.192;8.184;2023-09-18T10:45:51;7.83;;;4.67;;
17528;SDS011;8882;53.192;8.184;2023-09-18T10:48:18;9.50;;;4.37;;
17528;SDS011;8882;53.192;8.184;2023-09-18T10:50:45;8.60;;;4.50;;
17528;SDS011;8882;53.192;8.184;2023-09-18T10:53:12;9.70;;;4.77;;
17528;SDS011;8882;53.192;8.184;2023-09-18T10:55:38;5.83;;;4.27;;
17528;SDS011;8882;53.192;8.184;2023-09-18T10:58:03;3.73;;;3.43;;
17528;SDS011;8882;53.192;8.184;2023-09-18T11:00:30;4.43;;;4.03;;
17528;SDS011;8882;53.192;8.184;2023-09-18T11:03:15;9.77;;;4.20;;
17528;SDS011;8882;53.192;8.184;2023-09-18T11:05:45;4.70;;;3.67;;
17528;SDS011;8882;53.192;8.184;2023-09-18T11:08:27;4.80;;;3.67;;
17528;SDS011;8882;53.192;8.184;2023-09-18T11:10:58;8.30;;;3.92;;
17528;SDS011;8882;53.192;8.184;2023-09-18T11:13:30;4.67;;;3.87;;
17528;SDS011;8882;53.192;8.184;2023-09-18T11:16:02;3.60;;;3.07;;
17528;SDS011;8882;53.192;8.184;2023-09-18T11:18:38;5.22;;;3.60;;
17528;SDS011;8882;53.192;8.184;2023-09-18T11:21:11;8.83;;;3.97;;
17528;SDS011;8882;53.192;8.184;2023-09-18T11:23:40;5.70;;;3.60;;
17528;SDS011;8882;53.192;8.184;2023-09-18T11:26:08;5.93;;;3.38;;
17528;SDS011;8882;53.192;8.184;2023-09-18T11:28:35;4.93;;;3.35;;
17528;SDS011;8882;53.192;8.184;2023-09-18T11:31:04;3.30;;;3.00;;
17528;SDS011;8882;53.192;8.184;2023-09-18T11:33:36;5.28;;;3.28;;
17528;SDS011;8882;53.192;8.184;2023-09-18T11:38:58;3.92;;;2.95;;
17528;SDS011;8882;53.192;8.184;2023-09-18T11:41:34;3.22;;;2.65;;
17528;SDS011;8882;53.192;8.184;2023-09-18T11:46:39;4.50;;;2.50;;
17528;SDS011;8882;53.192;8.184;2023-09-18T11:49:10;6.10;;;2.65;;
17528;SDS011;8882;53.192;8.184;2023-09-18T11:51:37;5.55;;;2.83;;
17528;SDS011;8882;53.192;8.184;2023-09-18T11:54:03;3.17;;;2.50;;
17528;SDS011;8882;53.192;8.184;2023-09-18T11:56:32;3.95;;;2.30;;
17528;SDS011;8882;53.192;8.184;2023-09-18T11:59:00;2.20;;;2.00;;
17528;SDS011;8882;53.192;8.184;2023-09-18T12:01:29;2.60;;;2.20;;
17528;SDS011;8882;53.192;8.184;2023-09-18T12:04:02;3.15;;;2.10;;
17528;SDS011;8882;53.192;8.184;2023-09-18T12:06:35;2.47;;;2.00;;
17528;SDS011;8882;53.192;8.184;2023-09-18T12:09:01;2.63;;;2.08;;
17528;SDS011;8882;53.192;8.184;2023-09-18T12:11:28;3.88;;;2.40;;
17528;SDS011;8882;53.192;8.184;2023-09-18T12:13:54;2.78;;;1.92;;
17528;SDS011;8882;53.192;8.184;2023-09-18T12:16:21;3.17;;;2.08;;
17528;SDS011;8882;53.192;8.184;2023-09-18T12:18:48;2.72;;;1.85;;
17528;SDS011;8882;53.192;8.184;2023-09-18T12:21:14;2.72;;;1.75;;
17528;SDS011;8882;53.192;8.184;2023-09-18T12:23:42;5.28;;;1.90;;
17528;SDS011;8882;53.192;8.184;2023-09-18T12:26:10;6.88;;;1.77;;
17528;SDS011;8882;53.192;8.184;2023-09-18T12:28:38;3.05;;;1.77;;
17528;SDS011;8882;53.192;8.184;2023-09-18T12:31:04;3.95;;;2.05;;
17528;SDS011;8882;53.192;8.184;2023-09-18T12:33:33;2.67;;;1.48;;
17528;SDS011;8882;53.192;8.184;2023-09-18T12:36:00;2.00;;;1.67;;
17528;SDS011;8882;53.192;8.184;2023-09-18T12:38:26;2.88;;;1.63;;
17528;SDS011;8882;53.192;8.184;2023-09-18T12:40:53;2.20;;;1.45;;
17528;SDS011;8882;53.192;8.184;2023-09-18T12:43:20;3.70;;;1.88;;
17528;SDS011;8882;53.192;8.184;2023-09-18T12:45:47;3.65;;;2.00;;
17528;SDS011;8882;53.192;8.184;2023-09-18T12:48:14;4.07;;;1.50;;
17528;SDS011;8882;53.192;8.184;2023-09-18T12:50:41;3.55;;;1.50;;
17528;SDS011;8882;53.192;8.184;2023-09-18T12:53:07;3.50;;;1.67;;
17528;SDS011;8882;53.192;8.184;2023-09-18T12:55:37;1.83;;;1.70;;
17528;SDS011;8882;53.192;8.184;2023-09-18T12:58:04;3.65;;;1.83;;
17528;SDS011;8882;53.192;8.184;2023-09-18T13:00:32;2.67;;;1.92;;
17528;SDS011;8882;53.192;8.184;2023-09-18T13:02:59;2.75;;;1.70;;
17528;SDS011;8882;53.192;8.184;2023-09-18T13:05:26;2.92;;;1.60;;
17528;SDS011;8882;53.192;8.184;2023-09-18T13:07:52;4.22;;;1.77;;
17528;SDS011;8882;53.192;8.184;2023-09-18T13:10:21;2.63;;;2.03;;
17528;SDS011;8882;53.192;8.184;2023-09-18T13:12:50;3.55;;;1.60;;
17528;SDS011;8882;53.192;8.184;2023-09-18T13:15:26;2.20;;;1.55;;
17528;SDS011;8882;53.192;8.184;2023-09-18T13:17:53;3.30;;;1.60;;
17528;SDS011;8882;53.192;8.184;2023-09-18T13:20:24;2.47;;;1.52;;
17528;SDS011;8882;53.192;8.184;2023-09-18T13:22:55;3.47;;;1.77;;
17528;SDS011;8882;53.192;8.184;2023-09-18T13:25:24;3.72;;;1.48;;
17528;SDS011;8882;53.192;8.184;2023-09-18T13:27:54;1.67;;;1.30;;
17528;SDS011;8882;53.192;8.184;2023-09-18T13:30:21;1.40;;;1.30;;
17528;SDS011;8882;53.192;8.184;2023-09-18T13:32:49;1.85;;;1.40;;
17528;SDS011;8882;53.192;8.184;2023-09-18T13:35:15;1.50;;;1.40;;
17528;SDS011;8882;53.192;8.184;2023-09-18T13:37:43;4.10;;;1.52;;
17528;SDS011;8882;53.192;8.184;2023-09-18T13:40:10;2.92;;;1.42;;
17528;SDS011;8882;53.192;8.184;2023-09-18T13:42:39;1.58;;;1.48;;
17528;SDS011;8882;53.192;8.184;2023-09-18T13:45:06;1.70;;;1.30;;
17528;SDS011;8882;53.192;8.184;2023-09-18T13:47:34;3.15;;;1.50;;
17528;SDS011;8882;53.192;8.184;2023-09-18T13:50:01;1.55;;;1.45;;
17528;SDS011;8882;53.192;8.184;2023-09-18T13:52:29;3.53;;;1.55;;
17528;SDS011;8882;53.192;8.184;2023-09-18T13:54:56;3.50;;;1.45;;
17528;SDS011;8882;53.192;8.184;2023-09-18T13:57:23;1.65;;;1.30;;
17528;SDS011;8882;53.192;8.184;2023-09-18T13:59:49;2.90;;;1.27;;
17528;SDS011;8882;53.192;8.184;2023-09-18T14:04:47;3.30;;;1.27;;
17528;SDS011;8882;53.192;8.184;2023-09-18T14:07:13;3.22;;;1.40;;
17528;SDS011;8882;53.192;8.184;2023-09-18T14:09:39;3.50;;;1.42;;
17528;SDS011;8882;53.192;8.184;2023-09-18T14:12:05;2.08;;;1.30;;
17528;SDS011;8882;53.192;8.184;2023-09-18T14:14:34;1.20;;;1.10;;
17528;SDS011;8882;53.192;8.184;2023-09-18T14:17:00;2.63;;;1.30;;
17528;SDS011;8882;53.192;8.184;2023-09-18T14:19:26;3.30;;;1.60;;
17528;SDS011;8882;53.192;8.184;2023-09-18T14:21:51;1.80;;;1.40;;
17528;SDS011;8882;53.192;8.184;2023-09-18T14:24:17;4.75;;;1.30;;
17528;SDS011;8882;53.192;8.184;2023-09-18T14:26:47;5.18;;;1.10;;
17528;SDS011;8882;53.192;8.184;2023-09-18T14:29:14;3.00;;;1.20;;
17528;SDS011;8882;53.192;8.184;2023-09-18T14:31:40;3.70;;;1.40;;
17528;SDS011;8882;53.192;8.184;2023-09-18T14:34:05;3.55;;;1.50;;
17528;SDS011;8882;53.192;8.184;2023-09-18T14:36:33;1.77;;;1.17;;
17528;SDS011;8882;53.192;8.184;2023-09-18T14:39:00;3.75;;;1.52;;
17528;SDS011;8882;53.192;8.184;2023-09-18T14:41:27;1.30;;;1.10;;
17528;SDS011;8882;53.192;8.184;2023-09-18T14:43:52;1.73;;;1.20;;
17528;SDS011;8882;53.192;8.184;2023-09-18T14:46:18;1.35;;;1.25;;
17528;SDS011;8882;53.192;8.184;2023-09-18T14:48:46;2.25;;;1.30;;
17528;SDS011;8882;53.192;8.184;2023-09-18T14:51:11;1.52;;;1.27;;
17528;SDS011;8882;53.192;8.184;2023-09-18T14:53:37;1.75;;;1.10;;
17528;SDS011;8882;53.192;8.184;2023-09-18T14:56:02;2.95;;;1.30;;
17528;SDS011;8882;53.192;8.184;2023-09-18T14:58:29;2.58;;;1.25;;
17528;SDS011;8882;53.192;8.184;2023-09-18T15:00:55;1.77;;;1.17;;
17528;SDS011;8882;53.192;8.184;2023-09-18T15:03:22;2.15;;;1.73;;
17528;SDS011;8882;53.192;8.184;2023-09-18T15:05:50;2.50;;;1.17;;
17528;SDS011;8882;53.192;8.184;2023-09-18T15:08:19;1.83;;;1.38;;
17528;SDS011;8882;53.192;8.184;2023-09-18T15:13:14;2.22;;;1.55;;